Time;durP1;ratioP1;P1;durP2;ratioP2;P2;SDS_P1;SDS_P2;PMS_P1;PMS_P2;Temp;Humidity;BMP_temperature;BMP_pressure;BME280_temperature;BME280_humidity;BME280_pressure;Samples;Min_cycle;Max_cycle;Signal;HPM_P1;HPM_P2
2023/07/14 00:01:40;;;;;;;4.95;1.60;;;22.70;82.90;;;;;;5053849;28;20496;-73
2023/07/14 00:04:14;;;;;;;4.78;2.00;;;22.70;82.70;;;;;;5054089;28;20030;-73
2023/07/14 00:06:41;;;;;;;3.22;1.40;;;22.70;82.70;;;;;;5053767;28;20032;-73
2023/07/14 00:09:22;;;;;;;4.15;2.17;;;22.70;82.50;;;;;;5054007;28;20025;-73
2023/07/14 00:11:48;;;;;;;3.00;1.70;;;22.70;82.80;;;;;;5035522;28;20025;-74
2023/07/14 00:14:14;;;;;;;3.22;1.70;;;22.60;82.80;;;;;;5053817;28;20158;-73
2023/07/14 00:16:40;;;;;;;5.65;1.83;;;22.60;82.90;;;;;;5035873;28;20017;-73
2023/07/14 00:19:14;;;;;;;3.63;2.00;;;22.60;82.70;;;;;;5053517;28;20029;-73
2023/07/14 00:21:40;;;;;;;3.22;1.60;;;22.60;83.00;;;;;;5053620;28;20025;-73
2023/07/14 00:24:15;;;;;;;4.03;1.58;;;22.60;83.10;;;;;;5053543;28;20052;-74
2023/07/14 00:26:42;;;;;;;4.45;1.85;;;22.60;83.10;;;;;;5053134;28;20474;-73
2023/07/14 00:29:38;;;;;;;4.82;1.98;;;22.60;83.20;;;;;;5053475;28;20017;-73
2023/07/14 00:32:18;;;;;;;5.50;1.70;;;22.60;83.40;;;;;;5036743;28;20037;-73
2023/07/14 00:34:44;;;;;;;3.00;1.50;;;22.50;83.30;;;;;;5053388;28;20489;-73
2023/07/14 00:37:10;;;;;;;5.38;1.92;;;22.50;83.50;;;;;;5053276;28;20021;-74
2023/07/14 00:39:36;;;;;;;5.07;1.67;;;22.50;83.40;;;;;;5035017;28;20040;-74
2023/07/14 00:42:07;;;;;;;2.72;1.80;;;22.50;83.40;;;;;;5053578;28;20021;-73
2023/07/14 00:44:34;;;;;;;2.78;1.67;;;22.50;83.50;;;;;;5053157;28;20100;-74
2023/07/14 00:46:59;;;;;;;3.95;1.73;;;22.40;83.50;;;;;;5053149;28;20033;-73
2023/07/14 00:49:35;;;;;;;3.78;1.90;;;22.40;83.70;;;;;;5053134;28;20033;-73
2023/07/14 00:52:08;;;;;;;5.80;1.80;;;22.40;83.50;;;;;;5034708;28;20056;-73
2023/07/14 00:54:37;;;;;;;4.30;1.63;;;22.30;83.50;;;;;;5053008;28;20056;-74
2023/07/14 00:57:03;;;;;;;5.47;1.80;;;22.30;83.70;;;;;;5053050;28;20083;-73
2023/07/14 00:59:34;;;;;;;4.65;1.70;;;22.30;83.70;;;;;;5053105;28;20424;-73
2023/07/14 01:02:11;;;;;;;4.43;1.55;;;22.30;83.70;;;;;;5053105;28;20466;-73
2023/07/14 01:04:43;;;;;;;4.85;1.50;;;22.30;83.60;;;;;;5052967;28;20506;-74
2023/07/14 01:07:10;;;;;;;5.05;1.98;;;22.30;83.90;;;;;;5053051;28;20021;-74
2023/07/14 01:09:36;;;;;;;4.53;2.00;;;22.30;83.90;;;;;;5052565;28;20029;-73
2023/07/14 01:12:04;;;;;;;4.55;1.77;;;22.20;84.10;;;;;;5053218;28;20017;-73
2023/07/14 01:14:37;;;;;;;3.30;1.65;;;22.20;84.30;;;;;;5052811;28;20021;-74
2023/07/14 01:17:04;;;;;;;6.25;2.05;;;22.20;84.40;;;;;;5052907;28;20033;-73
2023/07/14 01:19:39;;;;;;;5.30;2.30;;;22.20;84.40;;;;;;5034791;28;20047;-73
2023/07/14 01:22:13;;;;;;;4.63;2.00;;;22.10;84.40;;;;;;5052925;28;20385;-74
2023/07/14 01:24:49;;;;;;;3.95;2.10;;;22.10;84.30;;;;;;5052389;28;20025;-73
2023/07/14 01:27:14;;;;;;;5.63;2.10;;;22.10;84.70;;;;;;5053029;28;20017;-73
2023/07/14 01:29:43;;;;;;;5.10;2.03;;;22.10;84.60;;;;;;5052576;28;20025;-73
2023/07/14 01:32:16;;;;;;;3.20;2.10;;;22.00;84.60;;;;;;5052966;28;20021;-74
2023/07/14 01:34:42;;;;;;;4.63;2.00;;;22.10;84.50;;;;;;5052553;28;20029;-73
2023/07/14 01:37:08;;;;;;;5.68;1.98;;;22.00;84.60;;;;;;5052808;28;20504;-73
2023/07/14 01:39:34;;;;;;;5.10;2.20;;;22.00;84.70;;;;;;5052166;28;20068;-73
2023/07/14 01:41:59;;;;;;;6.40;2.08;;;22.00;84.90;;;;;;5052848;28;20123;-74
2023/07/14 01:44:26;;;;;;;4.75;1.75;;;21.90;84.90;;;;;;5052671;28;20426;-73
2023/07/14 01:46:52;;;;;;;4.15;2.30;;;21.90;85.00;;;;;;5052569;28;20032;-73
2023/07/14 01:49:40;;;;;;;3.53;1.88;;;21.90;85.10;;;;;;5052532;28;20025;-73
2023/07/14 01:52:11;;;;;;;5.97;2.33;;;21.90;85.10;;;;;;5052251;28;20048;-73
2023/07/14 01:54:45;;;;;;;4.60;1.80;;;21.90;85.20;;;;;;5052459;28;20018;-73
2023/07/14 01:57:15;;;;;;;6.32;1.90;;;21.90;85.30;;;;;;5052558;28;20094;-74
2023/07/14 01:59:45;;;;;;;3.65;1.98;;;21.80;85.70;;;;;;5052397;28;20311;-74
2023/07/14 02:02:17;;;;;;;5.28;2.22;;;21.80;85.80;;;;;;5052928;28;20036;-74
2023/07/14 02:04:46;;;;;;;5.32;2.45;;;21.80;85.70;;;;;;5053674;28;20549;-73
2023/07/14 02:07:13;;;;;;;5.30;2.45;;;21.70;85.90;;;;;;5055473;28;20021;-74
2023/07/14 02:09:40;;;;;;;6.45;3.22;;;21.70;86.00;;;;;;5056075;28;20062;-73
2023/07/14 02:12:11;;;;;;;6.95;2.40;;;21.70;86.00;;;;;;5056386;28;20413;-73
2023/07/14 02:14:45;;;;;;;5.18;2.15;;;21.60;86.00;;;;;;5055906;28;20017;-73
2023/07/14 02:17:22;;;;;;;7.20;3.00;;;21.60;86.10;;;;;;5056139;28;20029;-74
2023/07/14 02:19:48;;;;;;;4.05;2.00;;;21.60;86.10;;;;;;5055898;28;20090;-73
2023/07/14 02:22:14;;;;;;;3.88;2.50;;;21.60;86.20;;;;;;5055744;28;20032;-73
2023/07/14 02:24:40;;;;;;;6.07;2.72;;;21.50;86.40;;;;;;5037666;28;20033;-73
2023/07/14 02:27:05;;;;;;;5.07;2.40;;;21.60;86.50;;;;;;5055910;28;20074;-73
2023/07/14 02:29:31;;;;;;;4.80;2.60;;;21.50;86.60;;;;;;5037841;28;20128;-73
2023/07/14 02:32:12;;;;;;;4.30;2.42;;;21.50;86.70;;;;;;5055638;28;20108;-72
2023/07/14 02:34:46;;;;;;;7.30;2.42;;;21.50;86.70;;;;;;5055703;28;20025;-73
2023/07/14 02:38:06;;;;;;;6.75;2.85;;;21.50;86.90;;;;;;5055420;28;20025;-72
2023/07/14 02:40:38;;;;;;;4.32;2.33;;;21.50;86.90;;;;;;4974879;28;20030;-72
2023/07/14 02:43:16;;;;;;;;;;;21.40;87.10;;;;;;4975389;28;20033;-74
2023/07/14 02:45:54;;;;;;;4.47;2.30;;;21.40;86.90;;;;;;5031132;28;19905;-73
2023/07/14 02:48:28;;;;;;;5.50;2.90;;;21.40;87.30;;;;;;5037608;28;20037;-73
2023/07/14 02:50:54;;;;;;;5.32;2.30;;;21.40;87.50;;;;;;5054720;28;20492;-73
2023/07/14 02:53:19;;;;;;;3.42;1.98;;;21.40;87.30;;;;;;5055444;28;20025;-72
2023/07/14 02:55:45;;;;;;;3.63;2.38;;;21.40;87.50;;;;;;5055263;28;20415;-72
2023/07/14 02:58:11;;;;;;;5.07;2.42;;;21.30;87.40;;;;;;5055366;28;20029;-72
2023/07/14 03:00:36;;;;;;;4.70;2.45;;;21.30;87.50;;;;;;5055018;28;20021;-72
2023/07/14 03:03:02;;;;;;;6.13;2.58;;;21.30;87.40;;;;;;5055183;28;20067;-72
2023/07/14 03:05:29;;;;;;;5.93;2.65;;;21.30;87.50;;;;;;5054602;28;20462;-73
2023/07/14 03:07:55;;;;;;;5.63;2.78;;;21.30;87.40;;;;;;5055156;28;20028;-73
2023/07/14 03:10:21;;;;;;;4.70;3.00;;;21.30;87.40;;;;;;5037093;28;20025;-75
2023/07/14 03:12:46;;;;;;;4.72;2.60;;;21.20;87.60;;;;;;5055065;28;20381;-73
2023/07/14 03:15:12;;;;;;;4.88;2.50;;;21.30;87.60;;;;;;5054486;28;20152;-71
2023/07/14 03:17:37;;;;;;;7.65;2.72;;;21.30;87.80;;;;;;5054732;28;20057;-72
2023/07/14 03:20:04;;;;;;;4.60;2.20;;;21.30;87.60;;;;;;5054470;28;20051;-72
2023/07/14 03:22:30;;;;;;;6.13;2.85;;;21.20;87.60;;;;;;5054661;28;20555;-72
2023/07/14 03:24:58;;;;;;;8.50;2.92;;;21.20;87.60;;;;;;5054654;28;20075;-73
2023/07/14 03:27:23;;;;;;;5.32;3.00;;;21.20;87.70;;;;;;5054605;28;20025;-71
2023/07/14 03:29:49;;;;;;;5.80;2.85;;;21.20;88.00;;;;;;5054594;28;20024;-71
2023/07/14 03:32:14;;;;;;;6.10;2.70;;;21.20;88.10;;;;;;5054521;28;20036;-73
2023/07/14 03:34:40;;;;;;;6.88;3.13;;;21.20;88.10;;;;;;5054297;28;20048;-72
2023/07/14 03:37:06;;;;;;;4.75;2.72;;;21.10;88.20;;;;;;5054435;28;20025;-72
2023/07/14 03:39:31;;;;;;;5.47;3.15;;;21.10;88.30;;;;;;5054433;28;20033;-72
2023/07/14 03:41:58;;;;;;;5.30;3.17;;;21.10;88.40;;;;;;5054360;28;20036;-72
2023/07/14 03:44:24;;;;;;;5.18;2.80;;;21.10;88.40;;;;;;5054394;28;20500;-71
2023/07/14 03:46:50;;;;;;;6.35;2.70;;;21.10;88.60;;;;;;5054242;28;20017;-72
2023/07/14 03:49:16;;;;;;;8.18;3.03;;;21.10;88.70;;;;;;5053923;28;20048;-73
2023/07/14 03:51:42;;;;;;;7.88;2.55;;;21.10;88.80;;;;;;5053999;28;20033;-72
2023/07/14 03:54:10;;;;;;;6.90;2.92;;;21.00;88.90;;;;;;5054321;28;20478;-72
2023/07/14 03:56:35;;;;;;;6.63;3.05;;;21.10;88.90;;;;;;5054053;28;20027;-73
2023/07/14 03:59:01;;;;;;;5.57;2.78;;;21.00;88.90;;;;;;5053936;28;20115;-72
2023/07/14 04:01:27;;;;;;;6.38;3.25;;;21.00;89.20;;;;;;5053724;28;20080;-72
2023/07/14 04:03:54;;;;;;;6.65;2.83;;;21.00;89.20;;;;;;5053814;28;20029;-72
2023/07/14 04:06:20;;;;;;;6.28;2.88;;;21.00;89.60;;;;;;5036145;28;20381;-72
2023/07/14 04:08:45;;;;;;;6.85;3.05;;;20.90;89.70;;;;;;5053763;28;20028;-72
2023/07/14 04:11:12;;;;;;;7.88;3.15;;;20.90;89.60;;;;;;5035990;28;20025;-72
2023/07/14 04:13:38;;;;;;;3.58;2.83;;;20.90;89.60;;;;;;5053665;28;20481;-73
2023/07/14 04:16:09;;;;;;;9.02;3.22;;;20.90;90.10;;;;;;5053771;28;20066;-73
2023/07/14 04:18:36;;;;;;;6.00;2.90;;;20.90;90.00;;;;;;5053275;28;20033;-73
2023/07/14 04:21:10;;;;;;;7.40;3.22;;;20.90;89.90;;;;;;5053590;28;20537;-73
2023/07/14 04:23:36;;;;;;;8.45;3.65;;;20.90;89.90;;;;;;5053568;28;20033;-74
2023/07/14 04:26:02;;;;;;;5.93;2.95;;;20.90;90.00;;;;;;5052794;28;20092;-74
2023/07/14 04:28:28;;;;;;;9.48;3.42;;;20.80;90.10;;;;;;5053435;28;20094;-74
2023/07/14 04:30:57;;;;;;;7.30;3.20;;;20.90;90.00;;;;;;5053569;28;20458;-73
2023/07/14 04:33:24;;;;;;;8.75;3.45;;;20.90;90.00;;;;;;5053298;28;20036;-74
2023/07/14 04:35:51;;;;;;;5.40;2.70;;;20.80;90.20;;;;;;5035596;28;20111;-74
2023/07/14 04:38:18;;;;;;;4.70;2.67;;;20.80;90.20;;;;;;5053400;28;20108;-74
2023/07/14 04:40:45;;;;;;;8.20;3.50;;;20.80;90.20;;;;;;5053288;28;20017;-74
2023/07/14 04:43:11;;;;;;;7.40;3.08;;;20.80;90.10;;;;;;5053446;28;20024;-74
2023/07/14 04:45:38;;;;;;;6.90;3.20;;;20.80;90.30;;;;;;5053463;28;20021;-73
2023/07/14 04:48:09;;;;;;;5.63;2.83;;;20.80;90.20;;;;;;5053069;28;20021;-73
2023/07/14 04:50:35;;;;;;;8.60;3.03;;;20.80;90.30;;;;;;5053351;28;20441;-73
2023/07/14 04:53:05;;;;;;;6.07;2.90;;;20.80;90.30;;;;;;5052903;28;20104;-73
2023/07/14 04:55:31;;;;;;;8.95;3.10;;;20.80;90.30;;;;;;5053207;28;20412;-73
2023/07/14 04:57:57;;;;;;;4.75;2.55;;;20.80;90.40;;;;;;5035374;28;20029;-73
2023/07/14 05:00:23;;;;;;;6.68;2.88;;;20.80;90.30;;;;;;5055364;28;20037;-75
2023/07/14 05:02:48;;;;;;;7.97;3.15;;;20.80;90.40;;;;;;5073011;28;20021;-73
2023/07/14 05:05:22;;;;;;;6.22;3.00;;;20.80;90.30;;;;;;5073104;28;20377;-74
2023/07/14 05:07:48;;;;;;;6.72;2.58;;;20.80;90.50;;;;;;5073203;28;20362;-75
2023/07/14 05:10:15;;;;;;;9.57;3.55;;;20.80;90.50;;;;;;5073056;28;20016;-74
2023/07/14 05:12:40;;;;;;;7.70;3.25;;;20.80;90.50;;;;;;5073296;28;20067;-74
2023/07/14 05:15:10;;;;;;;5.72;2.92;;;20.90;90.60;;;;;;5072562;28;20421;-74
2023/07/14 05:17:37;;;;;;;10.73;3.83;;;20.80;90.60;;;;;;5073149;28;20012;-74
2023/07/14 05:20:06;;;;;;;6.07;3.05;;;20.80;90.60;;;;;;5072766;28;20044;-74
2023/07/14 05:22:32;;;;;;;6.22;2.95;;;20.80;90.70;;;;;;5073003;28;20045;-73
2023/07/14 05:24:58;;;;;;;5.22;3.38;;;20.90;90.70;;;;;;5072780;28;20031;-74
2023/07/14 05:27:23;;;;;;;5.90;3.40;;;20.90;90.70;;;;;;5072931;28;20021;-74
2023/07/14 05:29:53;;;;;;;5.72;3.22;;;20.90;90.70;;;;;;5072663;28;20100;-74
2023/07/14 05:32:20;;;;;;;6.40;2.72;;;20.90;90.70;;;;;;5072983;28;20028;-74
2023/07/14 05:34:45;;;;;;;4.20;3.08;;;20.90;91.00;;;;;;5054724;28;20376;-74
2023/07/14 05:37:11;;;;;;;7.22;2.95;;;20.90;90.80;;;;;;5073283;28;20104;-74
2023/07/14 05:39:37;;;;;;;6.35;3.15;;;21.00;90.70;;;;;;5076684;28;20047;-74
2023/07/14 05:42:03;;;;;;;6.15;3.00;;;21.00;90.70;;;;;;5076785;28;20024;-74
2023/07/14 05:44:30;;;;;;;8.23;3.17;;;21.00;90.50;;;;;;5076421;28;20078;-74
2023/07/14 05:46:55;;;;;;;7.50;3.40;;;21.00;90.50;;;;;;5076607;28;20080;-74
2023/07/14 05:49:21;;;;;;;7.15;3.47;;;21.00;90.60;;;;;;5076564;28;20061;-74
2023/07/14 05:51:46;;;;;;;7.20;3.58;;;21.00;90.60;;;;;;5076118;28;20074;-74
2023/07/14 05:54:12;;;;;;;9.13;3.10;;;21.00;90.50;;;;;;5076272;28;20025;-74
2023/07/14 05:56:38;;;;;;;8.02;3.65;;;21.00;90.60;;;;;;5076494;28;20032;-74
2023/07/14 05:59:03;;;;;;;8.13;2.95;;;21.00;90.70;;;;;;5075999;28;20028;-74
2023/07/14 06:01:29;;;;;;;6.50;2.90;;;21.00;90.60;;;;;;5076522;28;20033;-74
2023/07/14 06:03:54;;;;;;;7.63;2.88;;;21.00;90.50;;;;;;5076315;28;20016;-74
2023/07/14 06:06:20;;;;;;;5.30;3.20;;;21.00;90.50;;;;;;5076123;28;20100;-74
2023/07/14 06:08:45;;;;;;;6.68;3.05;;;21.00;90.40;;;;;;5076152;28;20102;-74
2023/07/14 06:11:11;;;;;;;6.90;3.30;;;21.00;90.40;;;;;;5076044;28;20060;-74
2023/07/14 06:13:37;;;;;;;4.93;2.97;;;21.00;90.40;;;;;;5076321;28;20094;-74
2023/07/14 06:16:03;;;;;;;4.50;2.60;;;21.10;90.40;;;;;;5057964;28;20033;-74
2023/07/14 06:18:29;;;;;;;6.82;3.22;;;21.00;90.30;;;;;;5075970;28;20477;-74
2023/07/14 06:20:54;;;;;;;6.43;3.40;;;21.10;90.30;;;;;;5075807;28;20028;-73
2023/07/14 06:23:26;;;;;;;5.85;2.53;;;21.10;90.40;;;;;;5075968;28;20039;-74
2023/07/14 06:25:52;;;;;;;6.07;3.03;;;21.00;90.30;;;;;;5075917;28;20032;-73
2023/07/14 06:28:17;;;;;;;5.45;3.25;;;21.00;90.30;;;;;;5075613;28;20031;-73
2023/07/14 06:30:43;;;;;;;6.97;2.50;;;21.00;90.40;;;;;;5057747;28;20063;-74
2023/07/14 06:33:09;;;;;;;7.03;3.25;;;21.00;90.50;;;;;;5075642;28;20563;-75
2023/07/14 06:35:34;;;;;;;6.22;3.20;;;21.10;90.60;;;;;;5075684;28;20024;-74
2023/07/14 06:38:00;;;;;;;4.18;2.83;;;21.10;90.90;;;;;;5075745;28;20025;-74
2023/07/14 06:40:26;;;;;;;8.90;2.80;;;21.10;90.90;;;;;;5075579;28;20074;-74
2023/07/14 06:42:51;;;;;;;5.53;2.65;;;21.10;90.80;;;;;;5075302;28;20017;-74
2023/07/14 06:45:17;;;;;;;5.07;2.50;;;21.10;91.00;;;;;;5057536;28;20056;-74
2023/07/14 06:47:43;;;;;;;7.60;2.90;;;21.20;90.40;;;;;;5075443;28;20033;-74
2023/07/14 06:50:09;;;;;;;4.28;3.00;;;21.20;90.30;;;;;;5056391;28;20040;-74
2023/07/14 06:52:38;;;;;;;7.85;2.70;;;21.20;90.50;;;;;;5075567;28;20104;-74
2023/07/14 06:55:05;;;;;;;6.45;2.83;;;21.20;90.50;;;;;;5075233;28;20044;-74
2023/07/14 06:57:31;;;;;;;7.03;3.13;;;21.20;90.40;;;;;;5075174;28;20107;-75
2023/07/14 06:59:57;;;;;;;5.25;2.80;;;21.30;90.40;;;;;;5075339;28;20028;-74
2023/07/14 07:02:22;;;;;;;5.85;2.25;;;21.30;90.40;;;;;;5075088;28;20043;-74
2023/07/14 07:04:48;;;;;;;7.88;2.60;;;21.30;90.30;;;;;;5075217;28;20040;-74
2023/07/14 07:07:14;;;;;;;4.70;2.78;;;21.30;90.10;;;;;;5075099;28;20044;-74
2023/07/14 07:09:39;;;;;;;7.53;2.42;;;21.30;90.10;;;;;;5075217;28;20386;-74
2023/07/14 07:12:07;;;;;;;8.45;2.65;;;21.30;90.10;;;;;;5074665;28;20048;-74
2023/07/14 07:14:33;;;;;;;8.60;2.95;;;21.40;90.20;;;;;;5074879;28;20044;-74
2023/07/14 07:16:59;;;;;;;6.72;3.10;;;21.40;90.20;;;;;;5056853;28;20025;-74
2023/07/14 07:19:24;;;;;;;6.07;2.58;;;21.40;89.90;;;;;;5074828;28;20090;-75
2023/07/14 07:21:50;;;;;;;6.97;2.70;;;21.40;89.40;;;;;;5056693;28;20023;-74
2023/07/14 07:24:16;;;;;;;6.15;1.98;;;21.40;89.30;;;;;;5074684;28;20025;-75
2023/07/14 07:26:42;;;;;;;4.82;2.20;;;21.40;88.90;;;;;;5074495;28;20069;-74
2023/07/14 07:29:07;;;;;;;5.20;2.20;;;21.50;88.90;;;;;;5074649;28;20025;-75
2023/07/14 07:31:33;;;;;;;6.70;2.80;;;21.40;89.10;;;;;;5056668;28;20614;-75
2023/07/14 07:33:58;;;;;;;5.72;2.08;;;21.50;88.90;;;;;;5074682;28;20032;-75
2023/07/14 07:36:27;;;;;;;6.75;2.63;;;21.50;88.80;;;;;;5074302;28;20026;-75
2023/07/14 07:38:53;;;;;;;6.32;2.00;;;21.50;88.60;;;;;;5074587;28;20089;-74
2023/07/14 07:41:22;;;;;;;3.95;2.33;;;21.50;88.80;;;;;;5074027;28;20420;-75
2023/07/14 07:43:48;;;;;;;5.63;2.55;;;21.50;88.70;;;;;;5074285;28;20024;-75
2023/07/14 07:46:13;;;;;;;10.20;2.75;;;21.50;89.00;;;;;;5056257;28;20031;-74
2023/07/14 07:48:40;;;;;;;5.95;2.75;;;21.60;89.40;;;;;;5074356;28;20067;-75
2023/07/14 07:51:06;;;;;;;5.00;2.45;;;21.60;89.30;;;;;;5055929;28;20235;-75
2023/07/14 07:53:32;;;;;;;4.55;2.50;;;21.60;89.40;;;;;;5073927;28;20529;-75
2023/07/14 07:55:59;;;;;;;9.10;2.67;;;21.60;89.30;;;;;;5073944;28;20059;-75
2023/07/14 07:58:25;;;;;;;8.57;3.10;;;21.70;89.10;;;;;;5073744;28;20404;-75
2023/07/14 08:00:57;;;;;;;6.07;2.20;;;21.70;89.60;;;;;;5056178;28;20107;-75
2023/07/14 08:03:23;;;;;;;;;;;21.70;89.60;;;;;;5074215;28;20047;-75
2023/07/14 08:05:49;;;;;;;7.70;2.50;;;21.70;89.30;;;;;;5073914;28;20404;-75
2023/07/14 08:08:15;;;;;;;3.72;2.03;;;21.80;89.50;;;;;;5073741;28;20358;-75
2023/07/14 08:10:45;;;;;;;6.35;2.08;;;21.80;89.20;;;;;;5055668;28;20075;-75
2023/07/14 08:13:12;;;;;;;2.47;2.17;;;21.80;89.00;;;;;;5055733;28;20023;-76
2023/07/14 08:15:38;;;;;;;5.20;1.83;;;21.80;88.90;;;;;;5055787;28;20081;-75
2023/07/14 08:18:06;;;;;;;3.47;1.73;;;21.90;87.80;;;;;;5073548;28;20099;-75
2023/07/14 08:20:32;;;;;;;4.00;2.20;;;21.90;87.50;;;;;;5073638;28;20024;-75
2023/07/14 08:23:01;;;;;;;3.97;2.10;;;21.90;87.30;;;;;;5073484;28;20033;-76
2023/07/14 08:25:27;;;;;;;3.47;1.60;;;21.90;87.60;;;;;;5073223;28;20025;-75
2023/07/14 08:27:53;;;;;;;4.78;2.10;;;21.90;88.00;;;;;;5055512;28;20378;-75
2023/07/14 08:30:20;;;;;;;5.40;2.25;;;22.00;87.60;;;;;;5073516;28;20032;-75
2023/07/14 08:32:49;;;;;;;4.13;1.90;;;22.00;87.00;;;;;;5073334;28;20095;-75
2023/07/14 08:35:16;;;;;;;6.10;2.10;;;22.00;87.10;;;;;;5073447;28;20013;-75
2023/07/14 08:37:42;;;;;;;4.32;1.73;;;22.00;87.40;;;;;;5073440;28;20020;-75
2023/07/14 08:40:13;;;;;;;6.97;2.28;;;22.10;87.00;;;;;;5072946;28;20032;-75
2023/07/14 08:42:57;;;;;;;6.45;2.17;;;22.10;87.10;;;;;;5073248;28;20020;-75
2023/07/14 08:45:55;;;;;;;3.53;1.80;;;22.10;87.10;;;;;;5055053;28;20033;-75
2023/07/14 08:48:37;;;;;;;5.60;2.05;;;22.20;87.10;;;;;;5073058;28;20542;-75
2023/07/14 08:51:18;;;;;;;3.42;2.00;;;22.20;87.40;;;;;;5055072;28;20043;-75
2023/07/14 08:54:00;;;;;;;3.20;1.77;;;22.20;87.80;;;;;;5072856;28;20102;-75
2023/07/14 08:56:30;;;;;;;4.65;1.85;;;22.20;86.80;;;;;;5073038;28;20040;-75
2023/07/14 08:58:55;;;;;;;2.15;1.30;;;22.20;86.90;;;;;;5072712;28;20389;-75
2023/07/14 09:01:35;;;;;;;4.95;1.77;;;22.20;88.40;;;;;;5073243;28;20025;-75
2023/07/14 09:04:20;;;;;;;3.60;1.63;;;22.20;87.50;;;;;;5072837;28;20051;-75
2023/07/14 09:06:47;;;;;;;2.95;1.55;;;22.30;87.50;;;;;;5071607;28;20475;-75
2023/07/14 09:09:34;;;;;;;3.53;1.85;;;22.30;87.90;;;;;;5073064;28;20412;-75
2023/07/14 09:12:37;;;;;;;3.67;1.80;;;22.30;87.60;;;;;;5072929;28;20043;-75
2023/07/14 09:15:08;;;;;;;3.30;1.70;;;22.40;87.60;;;;;;5072834;28;20029;-75
2023/07/14 09:17:51;;;;;;;4.00;1.70;;;22.40;87.40;;;;;;5072953;28;20043;-75
2023/07/14 09:20:29;;;;;;;3.70;2.05;;;22.40;87.70;;;;;;5054608;28;20044;-75
2023/07/14 09:23:13;;;;;;;3.47;1.90;;;22.40;87.70;;;;;;5072673;28;20025;-75
2023/07/14 09:26:00;;;;;;;4.38;1.67;;;22.40;87.40;;;;;;5072696;28;20055;-75
2023/07/14 09:28:37;;;;;;;3.65;1.40;;;22.40;87.30;;;;;;5072663;28;20020;-75
2023/07/14 09:31:29;;;;;;;4.68;1.70;;;22.40;87.60;;;;;;5072736;28;20025;-75
2023/07/14 09:33:59;;;;;;;3.65;1.58;;;22.50;88.40;;;;;;5054500;28;20396;-75
2023/07/14 09:36:27;;;;;;;3.95;1.60;;;22.50;87.80;;;;;;5054694;28;20036;-74
2023/07/14 09:38:57;;;;;;;5.38;1.77;;;22.50;87.60;;;;;;5072550;28;20036;-75
2023/07/14 09:41:25;;;;;;;3.10;1.65;;;22.50;87.50;;;;;;5072713;28;20393;-75
2023/07/14 09:43:57;;;;;;;3.20;1.50;;;22.60;87.60;;;;;;5072623;28;20021;-75
2023/07/14 09:46:23;;;;;;;3.22;1.65;;;22.60;87.50;;;;;;5072754;28;20086;-75
2023/07/14 09:48:52;;;;;;;6.20;2.05;;;22.60;87.30;;;;;;5054567;28;20024;-75
2023/07/14 09:51:26;;;;;;;4.57;2.00;;;22.60;87.10;;;;;;5072326;28;20032;-75
2023/07/14 09:53:59;;;;;;;4.60;1.45;;;22.60;87.00;;;;;;5072599;28;20033;-75
2023/07/14 09:56:29;;;;;;;3.70;1.80;;;22.70;87.10;;;;;;5072679;28;20478;-75
2023/07/14 09:59:02;;;;;;;5.90;1.85;;;22.70;87.00;;;;;;5072541;28;20074;-75
2023/07/14 10:01:31;;;;;;;3.75;1.77;;;22.70;87.10;;;;;;5072923;28;20024;-75
2023/07/14 10:04:06;;;;;;;2.88;1.20;;;22.70;87.20;;;;;;5072482;28;20031;-75
2023/07/14 10:06:32;;;;;;;6.03;2.13;;;22.70;87.30;;;;;;5072145;28;20097;-75
2023/07/14 10:09:11;;;;;;;4.50;1.73;;;22.70;87.10;;;;;;5071401;28;20465;-75
2023/07/14 10:11:45;;;;;;;3.20;1.52;;;22.80;87.00;;;;;;5072312;28;20034;-75
2023/07/14 10:14:25;;;;;;;6.13;1.92;;;22.80;87.00;;;;;;5054504;28;20048;-74
2023/07/14 10:16:53;;;;;;;3.33;1.45;;;22.80;87.10;;;;;;5072615;28;20024;-74
2023/07/14 10:19:20;;;;;;;2.50;1.55;;;22.80;87.10;;;;;;5072038;28;20066;-74
2023/07/14 10:22:09;;;;;;;3.47;1.50;;;22.80;87.10;;;;;;5072165;28;20072;-74
2023/07/14 10:24:37;;;;;;;5.70;1.98;;;22.80;86.90;;;;;;5062295;28;20040;-75
2023/07/14 10:27:18;;;;;;;5.80;1.70;;;22.80;87.00;;;;;;5076066;28;20024;-74
2023/07/14 10:29:46;;;;;;;2.83;1.63;;;22.90;86.80;;;;;;5075669;28;20396;-74
2023/07/14 10:32:32;;;;;;;2.75;1.40;;;22.90;86.80;;;;;;5075974;28;20477;-74
2023/07/14 10:35:11;;;;;;;4.70;1.35;;;23.00;86.80;;;;;;5057310;28;20077;-74
2023/07/14 10:37:42;;;;;;;3.42;1.60;;;23.00;86.90;;;;;;5075636;28;20026;-75
2023/07/14 10:40:14;;;;;;;5.63;1.73;;;23.00;87.10;;;;;;5075555;28;20097;-74
2023/07/14 10:43:04;;;;;;;1.50;1.10;;;23.00;86.90;;;;;;5075628;28;20103;-75
2023/07/14 10:45:32;;;;;;;2.85;1.15;;;23.10;86.90;;;;;;5075424;28;20020;-74
2023/07/14 10:48:17;;;;;;;3.35;1.65;;;23.00;86.80;;;;;;5057525;28;20020;-75
2023/07/14 10:51:08;;;;;;;2.53;1.58;;;23.10;86.50;;;;;;5075140;28;20390;-75
2023/07/14 10:53:45;;;;;;;4.10;1.60;;;23.10;86.60;;;;;;5075357;28;20032;-74
2023/07/14 10:56:21;;;;;;;3.28;1.17;;;23.20;86.60;;;;;;5075267;28;20023;-74
2023/07/14 10:58:54;;;;;;;2.85;1.25;;;23.10;86.60;;;;;;5075249;28;20025;-74
2023/07/14 11:01:34;;;;;;;3.92;1.50;;;23.10;86.10;;;;;;5075157;28;20025;-75
2023/07/14 11:04:33;;;;;;;2.20;1.10;;;23.20;85.60;;;;;;5075176;28;20017;-75
2023/07/14 11:07:00;;;;;;;1.73;1.10;;;23.20;85.90;;;;;;5075070;28;20024;-74
2023/07/14 11:09:28;;;;;;;2.67;1.23;;;23.20;86.20;;;;;;5075060;28;20090;-75
2023/07/14 11:12:22;;;;;;;3.47;1.52;;;23.20;86.00;;;;;;5075068;28;20024;-74
2023/07/14 11:15:14;;;;;;;4.20;1.67;;;23.20;85.80;;;;;;5074903;28;20559;-74
2023/07/14 11:17:40;;;;;;;;;;;23.30;85.70;;;;;;5074882;28;20397;-74
2023/07/14 11:20:12;;;;;;;1.85;1.10;;;23.20;85.90;;;;;;5074856;28;19924;-74
2023/07/14 11:22:57;;;;;;;2.90;1.42;;;23.20;86.00;;;;;;5074691;28;20489;-74
2023/07/14 11:25:54;;;;;;;2.88;1.40;;;23.20;85.80;;;;;;5074980;28;20025;-75
2023/07/14 11:28:40;;;;;;;5.00;1.30;;;23.40;85.50;;;;;;5074820;28;20035;-74
2023/07/14 11:31:20;;;;;;;3.40;1.17;;;23.30;85.70;;;;;;5074500;28;20024;-75
2023/07/14 11:34:01;;;;;;;3.58;1.25;;;23.40;85.90;;;;;;5056230;28;20048;-74
2023/07/14 11:36:35;;;;;;;3.90;1.30;;;23.40;85.70;;;;;;5074311;28;20108;-74
2023/07/14 11:39:20;;;;;;;2.90;1.08;;;23.40;85.80;;;;;;5074458;28;20111;-75
2023/07/14 11:41:46;;;;;;;3.00;1.35;;;23.40;85.70;;;;;;5074427;28;20036;-74
2023/07/14 11:44:16;;;;;;;2.33;1.40;;;23.50;85.90;;;;;;5074348;28;20017;-75
2023/07/14 11:46:43;;;;;;;3.10;1.40;;;23.50;85.70;;;;;;5073960;28;20481;-74
2023/07/14 11:49:24;;;;;;;3.08;1.63;;;23.50;85.70;;;;;;5056390;28;20115;-74
2023/07/14 11:51:56;;;;;;;2.47;1.30;;;23.50;85.70;;;;;;5074008;28;20036;-74
2023/07/14 11:54:53;;;;;;;1.50;1.20;;;23.50;85.70;;;;;;5074122;28;20036;-75
2023/07/14 11:57:20;;;;;;;2.58;1.20;;;23.50;85.60;;;;;;5074088;28;20028;-74
2023/07/14 12:00:17;;;;;;;3.10;1.55;;;23.50;85.80;;;;;;5073012;28;20430;-75
2023/07/14 12:02:56;;;;;;;2.63;1.55;;;23.60;86.00;;;;;;5073855;28;20028;-75
2023/07/14 12:05:30;;;;;;;3.25;1.75;;;23.60;85.80;;;;;;5074251;28;20051;-74
2023/07/14 12:08:04;;;;;;;4.28;1.60;;;23.60;85.70;;;;;;5073959;28;20028;-74
2023/07/14 12:10:40;;;;;;;2.97;1.25;;;23.70;85.30;;;;;;5073905;28;20082;-75
2023/07/14 12:13:18;;;;;;;3.08;1.27;;;23.70;85.00;;;;;;5074007;28;20021;-74
2023/07/14 12:15:54;;;;;;;3.63;1.70;;;23.70;85.10;;;;;;5073482;28;20108;-75
2023/07/14 12:18:34;;;;;;;1.90;1.23;;;23.70;84.10;;;;;;5055649;28;20021;-74
2023/07/14 12:21:18;;;;;;;3.67;1.75;;;23.80;83.90;;;;;;5073931;28;20036;-74
2023/07/14 12:23:51;;;;;;;2.55;1.30;;;23.80;83.80;;;;;;5073439;28;20093;-74
2023/07/14 12:26:31;;;;;;;2.10;1.05;;;23.80;84.90;;;;;;5073716;28;20025;-74
2023/07/14 12:29:01;;;;;;;3.38;1.77;;;23.80;84.20;;;;;;5073572;28;20018;-75
2023/07/14 12:31:34;;;;;;;2.38;1.15;;;23.80;83.80;;;;;;5073323;28;20027;-75
2023/07/14 12:33:59;;;;;;;2.67;1.17;;;23.90;84.10;;;;;;5073618;28;20020;-74
2023/07/14 12:36:29;;;;;;;4.13;1.50;;;23.90;83.10;;;;;;5073451;28;20027;-74
2023/07/14 12:38:54;;;;;;;2.63;1.00;;;23.90;83.40;;;;;;5073500;28;20024;-74
2023/07/14 12:41:23;;;;;;;2.50;1.50;;;24.00;83.90;;;;;;5073556;28;20029;-75
2023/07/14 12:43:53;;;;;;;3.67;1.90;;;24.00;82.40;;;;;;5073009;28;20099;-74
2023/07/14 12:46:23;;;;;;;2.58;1.00;;;24.00;82.80;;;;;;5073190;28;20052;-74
2023/07/14 12:48:49;;;;;;;1.85;1.38;;;24.00;83.00;;;;;;5072772;28;20021;-74
2023/07/14 12:51:18;;;;;;;2.67;1.17;;;24.00;82.80;;;;;;5073269;28;20485;-74
2023/07/14 12:53:58;;;;;;;4.03;1.48;;;24.00;83.00;;;;;;5073021;28;20052;-74
2023/07/14 12:56:27;;;;;;;5.88;1.42;;;24.10;82.40;;;;;;5073374;28;20021;-75
2023/07/14 12:58:57;;;;;;;2.03;1.17;;;24.00;82.20;;;;;;5054716;28;20028;-74
2023/07/14 13:01:22;;;;;;;2.70;1.10;;;24.10;82.40;;;;;;5073345;28;20024;-74
2023/07/14 13:03:48;;;;;;;4.03;1.77;;;24.10;82.10;;;;;;5072891;28;20362;-74
2023/07/14 13:06:21;;;;;;;2.33;1.30;;;24.10;81.80;;;;;;5073171;28;20032;-74